Time;durP1;ratioP1;P1;durP2;ratioP2;P2;SDS_P1;SDS_P2;PMS_P1;PMS_P2;Temp;Humidity;BMP_temperature;BMP_pressure;BME280_temperature;BME280_humidity;BME280_pressure;Samples;Min_cycle;Max_cycle;Signal;HPM_P1;HPM_P2
2022/03/15 00:00:24;;;;;;;3.03;2.40;;;;;;;;;;4212935;28;20453;-42
2022/03/15 00:02:25;;;;;;;3.53;2.80;;;;;;;;;;4212534;28;20422;-43
2022/03/15 00:04:26;;;;;;;2.95;2.47;;;;;;;;;;4213127;28;20109;-42
2022/03/15 00:06:27;;;;;;;2.92;2.60;;;;;;;;;;4212949;28;20103;-43
2022/03/15 00:08:28;;;;;;;2.60;2.40;;;;;;;;;;4212900;28;20095;-43
2022/03/15 00:10:29;;;;;;;4.13;2.85;;;;;;;;;;4212746;28;20523;-42
2022/03/15 00:12:31;;;;;;;3.15;2.67;;;;;;;;;;4212816;28;20089;-43
2022/03/15 00:14:36;;;;;;;3.47;2.90;;;;;;;;;;4213307;28;20052;-43
2022/03/15 00:16:38;;;;;;;3.63;2.30;;;;;;;;;;4213038;28;20044;-43
2022/03/15 00:18:39;;;;;;;2.92;2.63;;;;;;;;;;4212422;28;20086;-44
2022/03/15 00:20:40;;;;;;;3.70;2.72;;;;;;;;;;4213146;28;20044;-43
2022/03/15 00:22:41;;;;;;;3.22;2.63;;;;;;;;;;4212440;28;20108;-43
2022/03/15 00:24:46;;;;;;;4.13;2.60;;;;;;;;;;4212782;28;20094;-42
2022/03/15 00:26:47;;;;;;;2.30;2.10;;;;;;;;;;4213012;28;20105;-43
2022/03/15 00:28:48;;;;;;;2.85;2.55;;;;;;;;;;4212781;28;20086;-44
2022/03/15 00:30:49;;;;;;;2.90;2.60;;;;;;;;;;4212944;28;20048;-42
2022/03/15 00:32:50;;;;;;;3.17;2.70;;;;;;;;;;4212519;28;20572;-43
2022/03/15 00:34:51;;;;;;;2.55;2.35;;;;;;;;;;4212626;28;20051;-43
2022/03/15 00:36:52;;;;;;;3.35;2.72;;;;;;;;;;4212473;28;20056;-43
2022/03/15 00:38:53;;;;;;;3.20;2.72;;;;;;;;;;4211524;28;20056;-42
2022/03/15 00:40:54;;;;;;;2.72;2.50;;;;;;;;;;4212653;28;20089;-42
2022/03/15 00:42:56;;;;;;;2.80;2.50;;;;;;;;;;4212875;28;20048;-42
2022/03/15 00:45:01;;;;;;;3.35;2.40;;;;;;;;;;4212633;28;20052;-42
2022/03/15 00:47:04;;;;;;;3.03;2.42;;;;;;;;;;4210694;28;20120;-43
2022/03/15 00:49:05;;;;;;;2.42;2.22;;;;;;;;;;4212670;28;20052;-43
2022/03/15 00:51:06;;;;;;;2.78;2.50;;;;;;;;;;4212840;28;20063;-42
2022/03/15 00:53:08;;;;;;;3.53;2.88;;;;;;;;;;4212456;28;20040;-42
2022/03/15 00:55:10;;;;;;;3.05;2.50;;;;;;;;;;4211323;28;20185;-42
2022/03/15 00:57:11;;;;;;;3.97;2.78;;;;;;;;;;4211318;28;20165;-43
2022/03/15 00:59:13;;;;;;;3.08;2.50;;;;;;;;;;4211397;28;20071;-42
2022/03/15 01:01:14;;;;;;;3.13;2.75;;;;;;;;;;4211622;28;20048;-43
2022/03/15 01:03:15;;;;;;;2.90;2.60;;;;;;;;;;4212070;28;20181;-43
2022/03/15 01:05:16;;;;;;;3.15;2.58;;;;;;;;;;4212582;28;20411;-43
2022/03/15 01:07:17;;;;;;;2.88;2.40;;;;;;;;;;4212367;28;20105;-43
2022/03/15 01:09:19;;;;;;;3.45;2.83;;;;;;;;;;4212980;28;20172;-43
2022/03/15 01:11:20;;;;;;;3.00;2.58;;;;;;;;;;4173406;28;20068;-43
2022/03/15 01:13:21;;;;;;;3.28;2.53;;;;;;;;;;4178074;28;20075;-43
2022/03/15 01:15:24;;;;;;;3.03;2.58;;;;;;;;;;4179184;28;20110;-42
2022/03/15 01:17:25;;;;;;;3.05;2.42;;;;;;;;;;4177446;28;20514;-43
2022/03/15 01:19:26;;;;;;;3.20;2.25;;;;;;;;;;4179094;28;20091;-42
2022/03/15 01:21:28;;;;;;;2.55;2.25;;;;;;;;;;4179359;28;20107;-43
2022/03/15 01:23:29;;;;;;;3.20;2.40;;;;;;;;;;4179037;28;20095;-43
2022/03/15 01:25:30;;;;;;;2.78;2.30;;;;;;;;;;4178980;28;20082;-44
2022/03/15 01:27:31;;;;;;;3.67;2.78;;;;;;;;;;4179089;28;20099;-43
2022/03/15 01:29:32;;;;;;;2.70;2.33;;;;;;;;;;4177664;28;20150;-43
2022/03/15 01:31:34;;;;;;;3.65;2.60;;;;;;;;;;4177786;28;20386;-43
2022/03/15 01:33:35;;;;;;;3.47;2.45;;;;;;;;;;4178438;28;20044;-41
2022/03/15 01:35:37;;;;;;;2.67;2.30;;;;;;;;;;4180270;28;20045;-43
2022/03/15 01:37:39;;;;;;;2.47;2.15;;;;;;;;;;4182083;28;20048;-43
2022/03/15 01:39:43;;;;;;;2.40;2.05;;;;;;;;;;4197240;28;20619;-43
2022/03/15 01:41:45;;;;;;;2.25;1.98;;;;;;;;;;4181708;28;20057;-43
2022/03/15 01:43:47;;;;;;;2.30;2.08;;;;;;;;;;4180479;28;20488;-42
2022/03/15 01:45:50;;;;;;;3.08;2.60;;;;;;;;;;4180519;28;20551;-42
2022/03/15 01:47:51;;;;;;;2.53;2.30;;;;;;;;;;4180150;28;20409;-42
2022/03/15 01:49:55;;;;;;;2.92;2.25;;;;;;;;;;4182011;28;20056;-42
2022/03/15 01:51:56;;;;;;;3.88;2.60;;;;;;;;;;4181607;28;20053;-42
2022/03/15 01:53:57;;;;;;;3.03;2.15;;;;;;;;;;4180639;28;20044;-42
2022/03/15 01:55:59;;;;;;;4.20;2.60;;;;;;;;;;4180375;28;20107;-43
2022/03/15 01:58:00;;;;;;;2.83;2.30;;;;;;;;;;4181683;28;20095;-41
2022/03/15 02:00:02;;;;;;;2.83;2.10;;;;;;;;;;4180490;28;20049;-42
2022/03/15 02:02:04;;;;;;;2.55;2.25;;;;;;;;;;4179998;28;20110;-43
2022/03/15 02:04:05;;;;;;;3.03;2.15;;;;;;;;;;4181830;28;20079;-42
2022/03/15 02:06:09;;;;;;;2.83;2.60;;;;;;;;;;4181470;28;20044;-42
2022/03/15 02:08:11;;;;;;;2.53;2.33;;;;;;;;;;4181667;28;20049;-42
2022/03/15 02:10:12;;;;;;;2.80;2.30;;;;;;;;;;4196032;28;20531;-42
2022/03/15 02:12:14;;;;;;;2.95;2.50;;;;;;;;;;4214487;28;20105;-44
2022/03/15 02:14:15;;;;;;;3.08;2.47;;;;;;;;;;4215064;28;20093;-43
2022/03/15 02:16:16;;;;;;;3.22;2.13;;;;;;;;;;4214682;28;20097;-42
2022/03/15 02:18:19;;;;;;;2.75;2.10;;;;;;;;;;4214198;28;20044;-43
2022/03/15 02:20:21;;;;;;;2.80;2.15;;;;;;;;;;4214633;28;20048;-44
2022/03/15 02:22:22;;;;;;;2.50;2.13;;;;;;;;;;4214779;28;20056;-42
2022/03/15 02:24:23;;;;;;;2.47;2.10;;;;;;;;;;4214785;28;20052;-42
2022/03/15 02:26:24;;;;;;;2.47;2.28;;;;;;;;;;4214414;28;20355;-43
2022/03/15 02:28:25;;;;;;;3.10;2.15;;;;;;;;;;4214443;28;20118;-42
2022/03/15 02:30:26;;;;;;;2.63;2.20;;;;;;;;;;4214487;28;20487;-43
2022/03/15 02:32:27;;;;;;;2.50;2.28;;;;;;;;;;4214034;28;20139;-43
2022/03/15 02:34:28;;;;;;;2.90;2.50;;;;;;;;;;4214641;28;20097;-42
2022/03/15 02:36:29;;;;;;;2.50;2.30;;;;;;;;;;4214332;28;20052;-44
2022/03/15 02:38:30;;;;;;;2.20;2.00;;;;;;;;;;4214245;28;20040;-43
2022/03/15 02:40:30;;;;;;;2.55;2.35;;;;;;;;;;4214201;28;20086;-43
2022/03/15 02:42:32;;;;;;;3.28;2.33;;;;;;;;;;4214130;28;20532;-43
2022/03/15 02:44:33;;;;;;;2.53;2.10;;;;;;;;;;4214172;28;20105;-42
2022/03/15 02:46:34;;;;;;;2.83;2.47;;;;;;;;;;4214041;28;20149;-43
2022/03/15 02:48:35;;;;;;;2.92;2.30;;;;;;;;;;4213846;28;20082;-41
2022/03/15 02:50:36;;;;;;;2.75;2.28;;;;;;;;;;4213142;28;20044;-43
2022/03/15 02:52:37;;;;;;;2.00;1.80;;;;;;;;;;4214120;28;20518;-43
2022/03/15 02:54:40;;;;;;;2.25;2.05;;;;;;;;;;4213930;28;20097;-42
2022/03/15 02:56:45;;;;;;;2.45;2.05;;;;;;;;;;4213821;28;20470;-41
2022/03/15 02:58:45;;;;;;;2.00;1.70;;;;;;;;;;4213927;28;20437;-44
2022/03/15 03:00:46;;;;;;;2.25;2.05;;;;;;;;;;4214155;28;20051;-46
2022/03/15 03:02:47;;;;;;;2.70;2.38;;;;;;;;;;4213481;28;20044;-43
2022/03/15 03:04:48;;;;;;;2.53;2.00;;;;;;;;;;4212676;28;20088;-44
2022/03/15 03:06:49;;;;;;;2.80;2.13;;;;;;;;;;4213891;28;20153;-44
2022/03/15 03:08:50;;;;;;;2.78;2.00;;;;;;;;;;4213846;28;20056;-41
2022/03/15 03:10:52;;;;;;;2.40;2.08;;;;;;;;;;4213450;28;20098;-43
2022/03/15 03:12:54;;;;;;;2.33;2.00;;;;;;;;;;4213755;28;20060;-42
2022/03/15 03:14:55;;;;;;;2.22;2.03;;;;;;;;;;4213919;28;20044;-41
2022/03/15 03:16:56;;;;;;;1.98;1.77;;;;;;;;;;4213398;28;20052;-45
2022/03/15 03:18:58;;;;;;;2.80;2.13;;;;;;;;;;4214129;28;20132;-44
2022/03/15 03:20:59;;;;;;;2.42;1.90;;;;;;;;;;4213685;28;20052;-42
2022/03/15 03:23:01;;;;;;;2.38;2.17;;;;;;;;;;4213462;28;20048;-41
2022/03/15 03:25:03;;;;;;;2.17;1.98;;;;;;;;;;4213527;28;20394;-41
2022/03/15 03:27:05;;;;;;;3.03;2.20;;;;;;;;;;4213641;28;20052;-42
2022/03/15 03:29:11;;;;;;;2.30;2.10;;;;;;;;;;4213783;28;20061;-42
2022/03/15 03:31:13;;;;;;;2.75;2.15;;;;;;;;;;4213546;28;20051;-44
2022/03/15 03:33:14;;;;;;;2.72;2.50;;;;;;;;;;4213044;28;20105;-43
2022/03/15 03:35:15;;;;;;;2.30;2.10;;;;;;;;;;4212463;28;20483;-43
2022/03/15 03:37:17;;;;;;;2.20;2.00;;;;;;;;;;4213660;28;20089;-42
2022/03/15 03:39:18;;;;;;;2.17;1.98;;;;;;;;;;4213625;28;20097;-43
2022/03/15 03:41:18;;;;;;;2.42;2.10;;;;;;;;;;4213489;28;20090;-44
2022/03/15 03:43:20;;;;;;;3.00;2.05;;;;;;;;;;4213117;28;20124;-43
2022/03/15 03:45:20;;;;;;;2.20;1.80;;;;;;;;;;4213402;28;20063;-43
2022/03/15 03:47:21;;;;;;;2.72;2.08;;;;;;;;;;4212690;28;20054;-43
2022/03/15 03:49:22;;;;;;;2.15;1.90;;;;;;;;;;4213153;28;20090;-43
2022/03/15 03:51:23;;;;;;;2.53;2.10;;;;;;;;;;4213674;28;20853;-43
2022/03/15 03:53:24;;;;;;;1.88;1.75;;;;;;;;;;4212850;28;20538;-43
2022/03/15 03:55:25;;;;;;;2.45;1.83;;;;;;;;;;4211690;28;20048;-43
2022/03/15 03:57:26;;;;;;;2.30;2.10;;;;;;;;;;4212432;28;20112;-43
2022/03/15 03:59:27;;;;;;;2.10;1.90;;;;;;;;;;4213069;28;20044;-43
2022/03/15 04:01:28;;;;;;;2.45;1.80;;;;;;;;;;4213339;28;20102;-44
2022/03/15 04:03:29;;;;;;;2.50;1.88;;;;;;;;;;4212667;28;20169;-43
2022/03/15 04:05:36;;;;;;;2.65;2.28;;;;;;;;;;4213247;28;20047;-43
2022/03/15 04:07:39;;;;;;;2.72;2.28;;;;;;;;;;4213052;28;20056;-43
2022/03/15 04:09:40;;;;;;;2.78;2.25;;;;;;;;;;4212794;28;20068;-43
2022/03/15 04:11:41;;;;;;;2.50;1.75;;;;;;;;;;4212834;28;20479;-44
2022/03/15 04:13:44;;;;;;;2.40;1.92;;;;;;;;;;4212817;28;20445;-43
2022/03/15 04:15:45;;;;;;;2.33;1.73;;;;;;;;;;4212918;28;20098;-43
2022/03/15 04:17:46;;;;;;;2.00;1.83;;;;;;;;;;4212454;28;20453;-43
2022/03/15 04:19:47;;;;;;;2.10;1.90;;;;;;;;;;4212947;28;20052;-43
2022/03/15 04:21:48;;;;;;;1.90;1.67;;;;;;;;;;4212987;28;20153;-44
2022/03/15 04:23:49;;;;;;;2.38;1.83;;;;;;;;;;4212983;28;20052;-44
2022/03/15 04:25:51;;;;;;;2.78;1.92;;;;;;;;;;4213173;28;20185;-43
2022/03/15 04:27:56;;;;;;;2.30;2.10;;;;;;;;;;4211409;28;20491;-43
2022/03/15 04:29:57;;;;;;;2.08;1.70;;;;;;;;;;4212868;28;20097;-43
2022/03/15 04:31:58;;;;;;;2.30;2.10;;;;;;;;;;4212628;28;20048;-44
2022/03/15 04:34:00;;;;;;;2.45;2.25;;;;;;;;;;4212949;28;20048;-45
2022/03/15 04:36:01;;;;;;;2.53;2.17;;;;;;;;;;4212815;28;20056;-44
2022/03/15 04:38:02;;;;;;;2.17;1.67;;;;;;;;;;4212440;28;20044;-43
2022/03/15 04:40:04;;;;;;;2.13;1.88;;;;;;;;;;4212997;28;20062;-43
2022/03/15 04:42:05;;;;;;;2.22;1.90;;;;;;;;;;4212482;28;20101;-43
2022/03/15 04:44:06;;;;;;;1.55;1.45;;;;;;;;;;4212627;28;20094;-43
2022/03/15 04:46:08;;;;;;;2.70;2.03;;;;;;;;;;4211370;28;20048;-44
2022/03/15 04:48:09;;;;;;;2.05;1.85;;;;;;;;;;4212426;28;20044;-43
2022/03/15 04:50:10;;;;;;;2.00;1.80;;;;;;;;;;4212691;28;20086;-43
2022/03/15 04:52:11;;;;;;;2.20;1.95;;;;;;;;;;4212306;28;20044;-43
2022/03/15 04:54:12;;;;;;;1.90;1.70;;;;;;;;;;4212597;28;20540;-42
2022/03/15 04:56:13;;;;;;;1.70;1.60;;;;;;;;;;4212758;28;20047;-44
2022/03/15 04:58:14;;;;;;;2.15;1.90;;;;;;;;;;4212719;28;20110;-42
2022/03/15 05:00:15;;;;;;;2.08;1.88;;;;;;;;;;4212698;28;20399;-43
2022/03/15 05:02:16;;;;;;;2.10;1.75;;;;;;;;;;4212147;28;20529;-43
2022/03/15 05:04:17;;;;;;;2.75;2.00;;;;;;;;;;4212541;28;20169;-43
2022/03/15 05:06:18;;;;;;;1.88;1.65;;;;;;;;;;4212620;28;20085;-42
2022/03/15 05:08:18;;;;;;;1.92;1.73;;;;;;;;;;4212910;28;20140;-42
2022/03/15 05:12:39;;;;;;;1.67;1.50;;;;;;;;;;4215792;28;20048;-42
2022/03/15 05:14:40;;;;;;;2.47;2.00;;;;;;;;;;4215822;28;20433;-43
2022/03/15 05:16:41;;;;;;;2.55;2.00;;;;;;;;;;4215574;28;20372;-44
2022/03/15 05:18:45;;;;;;;2.38;2.10;;;;;;;;;;4215609;28;20075;-43
2022/03/15 05:20:46;;;;;;;2.17;1.65;;;;;;;;;;4215641;28;20040;-43
2022/03/15 05:22:47;;;;;;;2.00;1.58;;;;;;;;;;4215475;28;20165;-43
2022/03/15 05:24:48;;;;;;;2.05;1.85;;;;;;;;;;4215596;28;20106;-43
2022/03/15 05:26:51;;;;;;;2.30;1.95;;;;;;;;;;4215434;28;20056;-42
2022/03/15 05:28:52;;;;;;;2.20;1.63;;;;;;;;;;4215769;28;20048;-44
2022/03/15 05:30:55;;;;;;;2.13;1.70;;;;;;;;;;4215621;28;20055;-43
2022/03/15 05:32:56;;;;;;;1.98;1.63;;;;;;;;;;4215092;28;20418;-43
2022/03/15 05:34:57;;;;;;;2.10;1.73;;;;;;;;;;4215230;28;20083;-44
2022/03/15 05:36:58;;;;;;;2.20;1.92;;;;;;;;;;4215081;28;20448;-43
2022/03/15 05:38:59;;;;;;;1.83;1.50;;;;;;;;;;4214048;28;20157;-42
2022/03/15 05:41:01;;;;;;;2.15;1.95;;;;;;;;;;4213953;28;20100;-44
2022/03/15 05:43:02;;;;;;;2.15;1.95;;;;;;;;;;4215161;28;20384;-43
2022/03/15 05:45:04;;;;;;;1.55;1.45;;;;;;;;;;4213797;28;20576;-43
2022/03/15 05:47:05;;;;;;;1.77;1.67;;;;;;;;;;4213230;28;20118;-43
2022/03/15 05:49:06;;;;;;;1.70;1.42;;;;;;;;;;4207159;28;20044;-43
2022/03/15 05:51:07;;;;;;;3.05;1.52;;;;;;;;;;4202206;28;20132;-44
2022/03/15 05:53:11;;;;;;;2.10;1.90;;;;;;;;;;4203425;28;20499;-44
2022/03/15 05:55:12;;;;;;;1.90;1.70;;;;;;;;;;4213040;28;20105;-42
2022/03/15 05:57:13;;;;;;;2.47;2.20;;;;;;;;;;4207137;28;20108;-44
2022/03/15 05:59:14;;;;;;;1.90;1.70;;;;;;;;;;4208310;28;20094;-42
2022/03/15 06:01:16;;;;;;;1.77;1.40;;;;;;;;;;4203688;28;20102;-43
2022/03/15 06:03:17;;;;;;;2.28;1.77;;;;;;;;;;4197232;28;20500;-44
2022/03/15 06:05:18;;;;;;;2.92;1.70;;;;;;;;;;4196009;28;20098;-43
2022/03/15 06:07:19;;;;;;;2.50;2.00;;;;;;;;;;4196243;28;20102;-43
2022/03/15 06:09:21;;;;;;;2.33;1.90;;;;;;;;;;4198048;28;20052;-44
2022/03/15 06:11:22;;;;;;;2.53;2.22;;;;;;;;;;4195758;28;20126;-43
2022/03/15 06:13:23;;;;;;;2.53;1.95;;;;;;;;;;4208037;28;20494;-44
2022/03/15 06:15:24;;;;;;;2.13;1.92;;;;;;;;;;4204730;28;20099;-44
2022/03/15 06:17:25;;;;;;;2.33;2.13;;;;;;;;;;4198492;28;20104;-43
2022/03/15 06:19:26;;;;;;;2.80;2.42;;;;;;;;;;4201557;28;20392;-43
2022/03/15 06:21:27;;;;;;;2.45;2.22;;;;;;;;;;4195365;28;20093;-43
2022/03/15 06:23:27;;;;;;;2.55;2.10;;;;;;;;;;4194459;28;20062;-44
2022/03/15 06:25:30;;;;;;;2.65;1.88;;;;;;;;;;4196555;28;20181;-43
2022/03/15 06:27:30;;;;;;;2.42;2.13;;;;;;;;;;4202905;28;20064;-43
2022/03/15 06:29:35;;;;;;;2.90;2.50;;;;;;;;;;4200911;28;20388;-42
2022/03/15 06:31:37;;;;;;;2.15;1.88;;;;;;;;;;4199222;28;20116;-43
2022/03/15 06:33:38;;;;;;;2.65;2.30;;;;;;;;;;4195555;28;20044;-43
2022/03/15 06:35:39;;;;;;;3.78;2.00;;;;;;;;;;4205233;28;20503;-44
2022/03/15 06:37:44;;;;;;;2.50;2.30;;;;;;;;;;4202258;28;20048;-43
2022/03/15 06:39:45;;;;;;;3.45;2.67;;;;;;;;;;4197201;28;20047;-43
2022/03/15 06:41:46;;;;;;;2.58;2.38;;;;;;;;;;4200275;28;20067;-44
2022/03/15 06:43:47;;;;;;;2.53;2.33;;;;;;;;;;4194482;28;20515;-41
2022/03/15 06:45:48;;;;;;;3.10;2.80;;;;;;;;;;4194104;28;20480;-45
2022/03/15 06:47:49;;;;;;;2.80;2.38;;;;;;;;;;4196305;28;20121;-43
2022/03/15 06:49:50;;;;;;;2.28;2.08;;;;;;;;;;4190334;28;20064;-43
2022/03/15 06:51:51;;;;;;;2.33;2.13;;;;;;;;;;4201959;28;20059;-43
2022/03/15 06:53:52;;;;;;;3.85;2.58;;;;;;;;;;4199342;28;20139;-45
2022/03/15 06:55:53;;;;;;;5.93;2.47;;;;;;;;;;4198230;28;20326;-42
2022/03/15 06:57:54;;;;;;;4.35;2.22;;;;;;;;;;4181927;28;20094;-42
2022/03/15 06:59:59;;;;;;;3.35;2.08;;;;;;;;;;4196516;28;20484;-43
2022/03/15 07:02:00;;;;;;;3.25;2.30;;;;;;;;;;4186422;28;20056;-42
2022/03/15 07:04:01;;;;;;;3.30;2.38;;;;;;;;;;4195444;28;20048;-43
2022/03/15 07:06:02;;;;;;;3.60;2.63;;;;;;;;;;4190041;28;20126;-42
2022/03/15 07:08:03;;;;;;;4.10;2.60;;;;;;;;;;4192341;28;20052;-42
2022/03/15 07:10:09;;;;;;;3.22;2.40;;;;;;;;;;4194196;28;20090;-43
2022/03/15 07:12:10;;;;;;;4.55;2.17;;;;;;;;;;4193967;28;20086;-43
2022/03/15 07:14:12;;;;;;;3.40;2.60;;;;;;;;;;4188128;28;20060;-41
2022/03/15 07:16:14;;;;;;;4.32;2.42;;;;;;;;;;4189648;28;20872;-43
2022/03/15 07:18:16;;;;;;;3.33;2.33;;;;;;;;;;4189241;28;20586;-41
2022/03/15 07:20:17;;;;;;;5.43;2.50;;;;;;;;;;4195179;28;20056;-42
2022/03/15 07:22:18;;;;;;;6.88;2.55;;;;;;;;;;4187287;28;20047;-42
2022/03/15 07:24:19;;;;;;;4.60;2.70;;;;;;;;;;4190089;28;20529;-41
2022/03/15 07:26:20;;;;;;;5.82;2.50;;;;;;;;;;4188171;28;21508;-44
2022/03/15 07:28:21;;;;;;;4.47;2.40;;;;;;;;;;4189746;28;20450;-46
2022/03/15 07:30:25;;;;;;;3.60;2.40;;;;;;;;;;4188914;28;20044;-44
2022/03/15 07:32:26;;;;;;;4.57;2.50;;;;;;;;;;4178111;28;20617;-45
2022/03/15 07:34:27;;;;;;;3.10;2.40;;;;;;;;;;4180367;28;20056;-45
2022/03/15 07:36:29;;;;;;;3.03;1.90;;;;;;;;;;4182222;28;20054;-45
2022/03/15 07:38:32;;;;;;;4.25;2.40;;;;;;;;;;4188358;28;20097;-45
2022/03/15 07:40:33;;;;;;;4.45;2.47;;;;;;;;;;4185552;28;20094;-44
2022/03/15 07:42:33;;;;;;;3.13;2.40;;;;;;;;;;4185814;28;20827;-44
2022/03/15 07:44:35;;;;;;;3.88;2.40;;;;;;;;;;4182379;28;20545;-44
2022/03/15 07:46:36;;;;;;;3.63;2.28;;;;;;;;;;4178566;28;20056;-45
2022/03/15 07:48:37;;;;;;;7.90;2.55;;;;;;;;;;4183864;28;20052;-44
2022/03/15 07:50:39;;;;;;;5.32;2.78;;;;;;;;;;4174927;28;20063;-43
2022/03/15 07:52:40;;;;;;;3.10;2.60;;;;;;;;;;4179663;28;20467;-44
2022/03/15 07:54:42;;;;;;;5.18;2.33;;;;;;;;;;4170734;28;20113;-45
2022/03/15 07:56:43;;;;;;;4.07;2.45;;;;;;;;;;4169826;28;20123;-45
2022/03/15 07:58:44;;;;;;;3.30;2.38;;;;;;;;;;4162412;28;20141;-42
2022/03/15 08:00:47;;;;;;;8.15;2.55;;;;;;;;;;4171393;28;21208;-43
2022/03/15 08:02:51;;;;;;;5.82;2.22;;;;;;;;;;4170361;28;20503;-43
2022/03/15 08:04:53;;;;;;;4.38;2.58;;;;;;;;;;4164537;28;20574;-44
2022/03/15 08:06:54;;;;;;;6.10;2.67;;;;;;;;;;4153086;28;20052;-41
2022/03/15 08:08:57;;;;;;;3.72;2.78;;;;;;;;;;4164197;28;20060;-43
2022/03/15 08:10:58;;;;;;;8.48;3.10;;;;;;;;;;4171136;28;20130;-43
2022/03/15 08:12:59;;;;;;;3.55;2.72;;;;;;;;;;4172170;28;20058;-43
2022/03/15 08:15:01;;;;;;;4.57;2.78;;;;;;;;;;4174292;28;20058;-43
2022/03/15 08:17:03;;;;;;;5.38;2.22;;;;;;;;;;4176082;28;20090;-46
2022/03/15 08:19:04;;;;;;;3.10;2.60;;;;;;;;;;4169951;28;20126;-42
2022/03/15 08:21:05;;;;;;;4.68;2.50;;;;;;;;;;4173705;28;20125;-45
2022/03/15 08:23:09;;;;;;;3.45;2.35;;;;;;;;;;4168013;28;20507;-43
2022/03/15 08:25:10;;;;;;;7.57;3.10;;;;;;;;;;4170429;28;20158;-41
2022/03/15 08:27:11;;;;;;;3.90;2.28;;;;;;;;;;4169709;28;20047;-43
2022/03/15 08:29:12;;;;;;;4.90;2.83;;;;;;;;;;4162805;28;20142;-43
2022/03/15 08:31:14;;;;;;;7.55;2.80;;;;;;;;;;4161551;28;20048;-44
2022/03/15 08:33:15;;;;;;;4.00;2.78;;;;;;;;;;4162785;28;20128;-43
2022/03/15 08:35:16;;;;;;;5.70;2.40;;;;;;;;;;4165258;28;20094;-39
2022/03/15 08:37:17;;;;;;;4.78;2.65;;;;;;;;;;4169453;28;20134;-44
2022/03/15 08:39:21;;;;;;;5.13;2.65;;;;;;;;;;4166362;28;20086;-43
2022/03/15 08:41:22;;;;;;;3.40;2.45;;;;;;;;;;4167487;28;20193;-42
2022/03/15 08:43:24;;;;;;;5.50;2.40;;;;;;;;;;4178147;28;20052;-43
2022/03/15 08:45:25;;;;;;;6.57;2.47;;;;;;;;;;4163518;28;20744;-45
2022/03/15 08:47:26;;;;;;;6.57;2.65;;;;;;;;;;4163478;28;20141;-42
2022/03/15 08:49:27;;;;;;;4.13;2.35;;;;;;;;;;4177414;28;20061;-44
2022/03/15 08:51:28;;;;;;;5.57;2.80;;;;;;;;;;4175666;28;20052;-45
2022/03/15 08:53:31;;;;;;;5.35;2.92;;;;;;;;;;4178857;28;20406;-41
2022/03/15 08:55:31;;;;;;;4.05;2.90;;;;;;;;;;4169941;28;21149;-43
2022/03/15 08:57:33;;;;;;;2.63;2.33;;;;;;;;;;4161699;28;20201;-39
2022/03/15 08:59:34;;;;;;;3.92;2.60;;;;;;;;;;4175098;28;20109;-43
2022/03/15 09:01:35;;;;;;;5.97;2.53;;;;;;;;;;4161318;28;21911;-44
2022/03/15 09:03:36;;;;;;;4.25;2.70;;;;;;;;;;4161038;28;20130;-43
2022/03/15 09:05:37;;;;;;;5.45;3.03;;;;;;;;;;4159973;28;20052;-44
2022/03/15 09:07:40;;;;;;;3.95;2.83;;;;;;;;;;4158166;28;20147;-43
2022/03/15 09:09:42;;;;;;;5.32;2.55;;;;;;;;;;4163843;28;20076;-42
2022/03/15 09:11:42;;;;;;;5.80;2.78;;;;;;;;;;4165462;28;20456;-43
2022/03/15 09:13:43;;;;;;;4.88;2.80;;;;;;;;;;4168227;28;20057;-42
2022/03/15 09:15:44;;;;;;;5.05;3.28;;;;;;;;;;4159300;28;20048;-42
2022/03/15 09:17:47;;;;;;;9.10;2.90;;;;;;;;;;4155775;28;20052;-38
2022/03/15 09:19:52;;;;;;;10.98;2.95;;;;;;;;;;4160227;28;20124;-42
2022/03/15 09:21:56;;;;;;;3.85;2.75;;;;;;;;;;4154974;28;20137;-42
2022/03/15 09:23:57;;;;;;;5.53;2.53;;;;;;;;;;4158104;28;21041;-40
2022/03/15 09:25:58;;;;;;;4.05;2.92;;;;;;;;;;4153840;28;20056;-40
2022/03/15 09:27:59;;;;;;;3.30;2.40;;;;;;;;;;4155082;28;20113;-44
2022/03/15 09:30:01;;;;;;;6.13;2.55;;;;;;;;;;4153785;28;20359;-42
2022/03/15 09:32:03;;;;;;;5.78;2.65;;;;;;;;;;4170794;28;20740;-41
2022/03/15 09:34:05;;;;;;;6.50;2.70;;;;;;;;;;4178816;28;20105;-40
2022/03/15 09:36:05;;;;;;;5.75;2.85;;;;;;;;;;4177847;28;20145;-40
2022/03/15 09:38:07;;;;;;;3.58;2.80;;;;;;;;;;4172747;28;20045;-41
2022/03/15 09:40:09;;;;;;;3.30;2.80;;;;;;;;;;4171140;28;20564;-41
2022/03/15 09:42:11;;;;;;;4.68;2.80;;;;;;;;;;4168643;28;20059;-43
2022/03/15 09:44:11;;;;;;;4.20;2.78;;;;;;;;;;4173371;28;20511;-41
2022/03/15 09:46:13;;;;;;;4.18;2.90;;;;;;;;;;4177449;28;20055;-43
2022/03/15 09:48:17;;;;;;;3.67;3.20;;;;;;;;;;4183901;28;21323;-41
2022/03/15 09:50:20;;;;;;;4.50;2.67;;;;;;;;;;4176436;28;20093;-39
2022/03/15 09:52:21;;;;;;;3.13;2.60;;;;;;;;;;4180433;28;20278;-44
2022/03/15 09:54:24;;;;;;;3.80;2.65;;;;;;;;;;4173032;28;21470;-42
2022/03/15 09:56:25;;;;;;;2.92;2.60;;;;;;;;;;4166911;28;20765;-42
2022/03/15 09:58:26;;;;;;;4.03;2.33;;;;;;;;;;4175459;28;20129;-43
2022/03/15 10:00:29;;;;;;;4.35;2.95;;;;;;;;;;4175681;28;20743;-44
2022/03/15 10:02:31;;;;;;;5.10;3.00;;;;;;;;;;4181630;28;20036;-42
2022/03/15 10:04:32;;;;;;;3.65;2.60;;;;;;;;;;4182908;28;20051;-41
2022/03/15 10:06:33;;;;;;;4.95;2.60;;;;;;;;;;4182199;28;20051;-42
2022/03/15 10:08:34;;;;;;;3.65;2.83;;;;;;;;;;4186706;28;20100;-42
2022/03/15 10:10:35;;;;;;;2.88;2.60;;;;;;;;;;4185213;28;20068;-41
2022/03/15 10:12:37;;;;;;;6.03;3.13;;;;;;;;;;4181903;28;20103;-41
2022/03/15 10:14:45;;;;;;;3.65;3.00;;;;;;;;;;4174204;28;20121;-40
2022/03/15 10:16:49;;;;;;;2.85;2.60;;;;;;;;;;4174898;28;20052;-42
2022/03/15 10:18:53;;;;;;;4.95;2.95;;;;;;;;;;4177224;28;20078;-42
2022/03/15 10:20:55;;;;;;;3.97;2.90;;;;;;;;;;4170678;28;20184;-41
2022/03/15 10:22:57;;;;;;;4.07;2.85;;;;;;;;;;4180366;28;20780;-44
2022/03/15 10:24:58;;;;;;;3.60;2.63;;;;;;;;;;4173972;28;20052;-40
2022/03/15 10:27:00;;;;;;;5.95;3.08;;;;;;;;;;4153736;28;20059;-40
2022/03/15 10:29:01;;;;;;;6.53;3.08;;;;;;;;;;4163831;28;20060;-43
2022/03/15 10:31:05;;;;;;;6.10;3.40;;;;;;;;;;4158655;28;20055;-44
2022/03/15 10:33:06;;;;;;;5.88;2.85;;;;;;;;;;4159825;28;21478;-41
2022/03/15 10:35:11;;;;;;;5.13;3.10;;;;;;;;;;4174282;28;20048;-40
2022/03/15 10:37:13;;;;;;;3.05;2.70;;;;;;;;;;4173227;28;21337;-40
2022/03/15 10:39:16;;;;;;;4.28;2.80;;;;;;;;;;4169081;28;20653;-41
2022/03/15 10:41:18;;;;;;;3.83;2.85;;;;;;;;;;4176564;28;20052;-39
2022/03/15 10:43:23;;;;;;;4.75;3.17;;;;;;;;;;4179798;28;20104;-37
2022/03/15 10:45:24;;;;;;;2.90;2.53;;;;;;;;;;4180123;28;20060;-41
2022/03/15 10:47:24;;;;;;;4.53;3.17;;;;;;;;;;4182832;28;20181;-38
2022/03/15 10:49:26;;;;;;;3.75;2.88;;;;;;;;;;4181227;28;20527;-37
2022/03/15 10:51:27;;;;;;;4.70;2.95;;;;;;;;;;4183200;28;20572;-38
2022/03/15 10:53:36;;;;;;;8.27;3.10;;;;;;;;;;4180515;28;20801;-40
2022/03/15 10:55:37;;;;;;;4.95;3.33;;;;;;;;;;4175770;28;21024;-42
2022/03/15 10:57:45;;;;;;;7.35;3.53;;;;;;;;;;4166803;28;20044;-41
2022/03/15 10:59:46;;;;;;;4.57;3.00;;;;;;;;;;4177927;28;20130;-40
2022/03/15 11:01:48;;;;;;;3.55;2.97;;;;;;;;;;4177222;28;20124;-42
2022/03/15 11:03:56;;;;;;;4.88;3.13;;;;;;;;;;4182725;28;20051;-39
2022/03/15 11:05:58;;;;;;;5.28;3.50;;;;;;;;;;4184389;28;20056;-43
2022/03/15 11:08:05;;;;;;;3.42;3.13;;;;;;;;;;4184488;28;20056;-40
2022/03/15 11:10:14;;;;;;;3.13;2.70;;;;;;;;;;4184235;28;20059;-41
2022/03/15 11:12:14;;;;;;;5.20;3.30;;;;;;;;;;4181249;28;20067;-42
2022/03/15 11:14:28;;;;;;;3.83;2.72;;;;;;;;;;4184733;28;20559;-38
2022/03/15 11:16:30;;;;;;;5.38;3.05;;;;;;;;;;4180423;28;20056;-40
2022/03/15 11:18:32;;;;;;;5.05;3.22;;;;;;;;;;4182576;28;20865;-41
2022/03/15 11:20:38;;;;;;;3.95;3.13;;;;;;;;;;4173904;28;20096;-41
2022/03/15 11:22:39;;;;;;;4.40;3.00;;;;;;;;;;4175263;28;20082;-40
2022/03/15 11:24:49;;;;;;;4.03;3.15;;;;;;;;;;4177955;28;20289;-40
2022/03/15 11:26:52;;;;;;;6.25;3.33;;;;;;;;;;4174924;28;20048;-42
2022/03/15 11:28:53;;;;;;;3.13;2.83;;;;;;;;;;4156410;28;20052;-42
2022/03/15 11:30:55;;;;;;;6.07;3.17;;;;;;;;;;4159921;28;20052;-40
2022/03/15 11:32:56;;;;;;;3.95;3.20;;;;;;;;;;4172440;28;20125;-43
2022/03/15 11:34:57;;;;;;;3.83;3.30;;;;;;;;;;4168557;28;20080;-40
2022/03/15 11:36:58;;;;;;;4.03;3.22;;;;;;;;;;4161300;28;20124;-36
2022/03/15 11:39:00;;;;;;;3.83;3.13;;;;;;;;;;4169830;28;20056;-39
2022/03/15 11:41:01;;;;;;;4.97;2.85;;;;;;;;;;4164341;28;20977;-42
2022/03/15 11:43:07;;;;;;;6.70;3.05;;;;;;;;;;4170675;28;20044;-41
2022/03/15 11:45:26;;;;;;;3.85;2.95;;;;;;;;;;4175810;28;20105;-42
2022/03/15 11:47:33;;;;;;;4.47;2.90;;;;;;;;;;4174614;28;20048;-38
2022/03/15 11:49:47;;;;;;;3.95;3.08;;;;;;;;;;4172662;28;20828;-42
2022/03/15 11:52:04;;;;;;;5.03;2.70;;;;;;;;;;4178321;28;20435;-36
2022/03/15 11:54:10;;;;;;;4.32;3.25;;;;;;;;;;4175225;28;20048;-38
2022/03/15 11:56:27;;;;;;;3.20;2.90;;;;;;;;;;4176277;28;20125;-41
2022/03/15 11:58:29;;;;;;;4.60;3.40;;;;;;;;;;4172739;28;20059;-42
2022/03/15 12:00:38;;;;;;;5.88;2.95;;;;;;;;;;4167616;28;20048;-39
2022/03/15 12:02:39;;;;;;;3.17;2.63;;;;;;;;;;4171543;28;22453;-41
2022/03/15 12:04:44;;;;;;;6.20;3.45;;;;;;;;;;4172463;28;20117;-38
2022/03/15 12:06:54;;;;;;;4.13;2.90;;;;;;;;;;4172539;28;20997;-42
2022/03/15 12:08:57;;;;;;;3.33;3.03;;;;;;;;;;4174266;28;20083;-39
2022/03/15 12:11:05;;;;;;;5.15;2.85;;;;;;;;;;4172890;28;20467;-38
2022/03/15 12:13:13;;;;;;;6.30;3.25;;;;;;;;;;4170293;28;20734;-41